FCBB

Details ICAO FCBB (BZV)
Name MAYA MAYA
Region Republic of the Congo
Timezone Africa/Brazzaville (UTC+1.0)
Plans Departing 109
Arriving 130
Stats Elevation 1,048 ft / 319 m (AMSL)
Location -4.251698° 15.253029°
Runways 1
Magnetic Variation 1.287° W
Sunrise 2018-05-25 05:00:18 UTC / 2018-05-25 06:00:18 Local
Sunset 2018-05-25 16:54:25 UTC / 2018-05-25 17:54:25 Local
Advertisement - Login to hide

Runways

ID Width Length Bearing (true) Bearing (mag) Surface Threshold Offset Overrun Length
05 148 ft / 45 m 10,849 ft / 3,307 m 49.91° 51.20° Asphalt 0 ft / 0 m 275 ft / 84 m
23 148 ft / 45 m 10,849 ft / 3,307 m 229.91° 231.20° Asphalt 0 ft / 0 m 275 ft / 84 m

Map

Weather


0- 5 10 15 20 25 30 35+ Temperature / ° C

Clouds and Precipitation
Forecast for 2018-05-25 06:00 UTC. Updated 2 hours ago

Ground ~20,000 ft ~40,000 ft Winds

METAR

Not found

TAF

TAF FCBB 250500Z 2506/2612 23004KT 8000 SCT018 BECMG 2509/2511 SCT020 FEW030CB PROB30 2512/2515 TS BECMG 2516/2518 SCT016

Frequencies

Tower 121.10 MHz BRAZZAVILLE TWR
Tower 118.70 MHz BRAZZAVILLE TWR
Warning: Do not use this data for real-world aviation or navigation. No guarantee of current accuracy is given.